Time;durP1;ratioP1;P1;durP2;ratioP2;P2;SDS_P1;SDS_P2;PMS_P1;PMS_P2;Temp;Humidity;BMP_temperature;BMP_pressure;BME280_temperature;BME280_humidity;BME280_pressure;Samples;Min_cycle;Max_cycle;Signal;HPM_P1;HPM_P2
2022/08/10 00:00:19;;;;;;;3.80;2.42;;;;;;;20.36;51.14;99894.31;5064946;28;20052;-78
2022/08/10 00:02:14;;;;;;;4.47;2.50;;;;;;;20.52;51.01;99915.59;5064025;28;20037;-78
2022/08/10 00:04:40;;;;;;;3.58;2.67;;;;;;;20.54;51.25;99920.72;5064201;28;20496;-78
2022/08/10 00:07:06;;;;;;;2.88;2.33;;;;;;;20.55;51.60;99915.00;5064044;28;20033;-79
2022/08/10 00:09:31;;;;;;;2.58;2.38;;;;;;;20.46;51.53;99916.75;5063733;28;20410;-78
2022/08/10 00:11:57;;;;;;;3.30;2.50;;;;;;;20.05;52.08;99904.66;5063488;28;20020;-78
2022/08/10 00:14:22;;;;;;;3.75;2.15;;;;;;;20.06;52.20;99907.06;5061014;28;20032;-78
2022/08/10 00:16:48;;;;;;;3.78;2.72;;;;;;;20.33;51.58;99903.88;5058779;28;20028;-78
2022/08/10 00:19:13;;;;;;;3.13;2.13;;;;;;;20.35;51.32;99906.28;5063358;28;20063;-78
2022/08/10 00:21:39;;;;;;;3.03;2.75;;;;;;;20.34;51.62;99908.19;5062795;28;20040;-78
2022/08/10 00:24:04;;;;;;;4.78;2.17;;;;;;;19.97;52.32;99899.81;5064393;28;20032;-79
2022/08/10 00:26:30;;;;;;;2.78;2.30;;;;;;;20.08;52.25;99906.78;5064847;28;20016;-78
2022/08/10 00:28:56;;;;;;;2.13;2.00;;;;;;;20.19;51.85;99897.44;5063247;28;20032;-78
2022/08/10 00:31:21;;;;;;;2.35;2.15;;;;;;;19.97;51.75;99897.09;5059917;28;20034;-78
2022/08/10 00:33:47;;;;;;;2.58;2.28;;;;;;;20.07;51.93;99886.19;5048391;28;20116;-78
2022/08/10 00:36:12;;;;;;;3.63;2.22;;;;;;;20.20;51.96;99915.34;5046834;28;20032;-78
2022/08/10 00:38:37;;;;;;;3.63;2.15;;;;;;;19.80;53.57;99910.25;5061172;28;20033;-78
2022/08/10 00:41:03;;;;;;;2.30;2.10;;;;;;;19.81;52.70;99909.19;5062133;28;20032;-78
2022/08/10 00:43:28;;;;;;;3.33;2.30;;;;;;;19.90;52.11;99886.59;5060959;28;20028;-78
2022/08/10 00:45:54;;;;;;;2.72;2.45;;;;;;;19.93;52.07;99896.88;5055441;28;20024;-78
2022/08/10 00:48:19;;;;;;;3.00;2.05;;;;;;;19.93;52.31;99894.16;5041587;28;20044;-78
2022/08/10 00:50:45;;;;;;;2.55;2.38;;;;;;;19.84;52.33;99878.78;5064296;28;20036;-78
2022/08/10 00:53:11;;;;;;;2.50;2.28;;;;;;;19.89;52.28;99890.41;5045785;28;20476;-78
2022/08/10 00:55:37;;;;;;;4.43;2.78;;;;;;;19.31;53.36;99881.31;5079610;28;20027;-78
2022/08/10 00:58:03;;;;;;;5.18;2.83;;;;;;;18.99;55.96;99869.31;5057028;28;20083;-78
2022/08/10 01:00:28;;;;;;;3.10;2.47;;;;;;;19.44;53.27;99859.03;5043987;28;20043;-78
2022/08/10 01:02:54;;;;;;;3.80;2.85;;;;;;;19.53;53.12;99880.13;5059961;28;20064;-78
2022/08/10 01:05:20;;;;;;;3.45;2.25;;;;;;;19.02;54.37;99885.00;5061953;28;20038;-78
2022/08/10 01:08:07;;;;;;;2.55;2.35;;;;;;;19.26;54.18;99886.75;5064790;28;20044;-78
2022/08/10 01:11:00;;;;;;;3.10;2.20;;;;;;;18.73;55.49;99873.22;5063294;28;20081;-78
2022/08/10 01:13:36;;;;;;;3.00;2.47;;;;;;;19.34;53.11;99878.09;5075740;28;20032;-79
2022/08/10 01:16:08;;;;;;;5.80;2.53;;;;;;;19.60;52.88;99886.84;5057145;28;20021;-78
2022/08/10 01:18:42;;;;;;;3.05;2.45;;;;;;;19.73;52.77;99897.03;5061970;28;20024;-78
2022/08/10 01:21:38;;;;;;;2.38;2.17;;;;;;;19.39;53.33;99869.13;5059164;28;20032;-78
2022/08/10 01:24:35;;;;;;;2.55;2.00;;;;;;;19.63;52.92;99886.28;5063462;28;20067;-78
2022/08/10 01:27:26;;;;;;;2.72;2.50;;;;;;;19.63;52.78;99890.88;5054096;28;20075;-78
2022/08/10 01:29:57;;;;;;;6.63;2.45;;;;;;;19.68;52.69;99888.16;5077305;28;20107;-78
2022/08/10 01:32:41;;;;;;;3.83;2.30;;;;;;;19.40;52.59;99881.56;5062106;28;20111;-78
2022/08/10 01:35:18;;;;;;;2.67;2.42;;;;;;;19.53;52.99;99893.69;5059257;28;20384;-78
2022/08/10 01:37:50;;;;;;;2.78;2.35;;;;;;;19.59;52.99;99885.25;5059096;28;20028;-78
2022/08/10 01:40:21;;;;;;;5.15;2.80;;;;;;;19.39;52.90;99863.69;5061390;28;20035;-78
2022/08/10 01:42:49;;;;;;;5.05;2.38;;;;;;;19.38;53.21;99860.19;5062495;28;21025;-78
2022/08/10 01:45:16;;;;;;;4.00;2.53;;;;;;;19.35;52.94;99862.66;5061787;28;20116;-78
2022/08/10 01:50:44;;;;;;;5.07;2.85;;;;;;;19.38;53.14;99886.44;5062932;28;20070;-78
2022/08/10 01:53:15;;;;;;;2.67;2.47;;;;;;;19.42;53.26;99880.19;5058470;28;20455;-78
2022/08/10 01:55:42;;;;;;;6.32;2.83;;;;;;;19.32;53.46;99874.00;5061365;28;20021;-78
2022/08/10 01:58:09;;;;;;;2.95;2.40;;;;;;;19.36;53.62;99866.97;5057484;28;20029;-78
2022/08/10 02:00:38;;;;;;;2.70;2.47;;;;;;;19.36;53.31;99878.59;5056697;28;20111;-78
2022/08/10 02:03:06;;;;;;;2.22;2.05;;;;;;;19.21;53.63;99865.13;5077809;28;20438;-78
2022/08/10 02:05:33;;;;;;;3.83;2.55;;;;;;;19.19;53.59;99877.31;5061226;28;20025;-78
2022/08/10 02:08:01;;;;;;;4.70;2.28;;;;;;;19.16;53.25;99864.34;5058545;28;20086;-78
2022/08/10 02:10:28;;;;;;;3.78;2.20;;;;;;;18.97;53.90;99856.06;5060664;28;20032;-78
2022/08/10 02:12:57;;;;;;;3.90;2.63;;;;;;;18.32;56.81;99869.81;5062922;28;20027;-78
2022/08/10 02:15:26;;;;;;;4.88;2.78;;;;;;;18.26;56.45;99882.50;5061109;28;20469;-78
2022/08/10 02:17:57;;;;;;;2.95;2.40;;;;;;;18.60;54.86;99886.25;5059521;28;20039;-78
2022/08/10 02:20:24;;;;;;;3.08;2.70;;;;;;;19.00;54.35;99887.19;5057323;28;20028;-78
2022/08/10 02:23:03;;;;;;;2.55;2.22;;;;;;;19.01;54.04;99881.47;5062789;28;20032;-78
2022/08/10 02:25:30;;;;;;;3.30;2.80;;;;;;;18.59;55.67;99894.63;5062596;28;20024;-78
2022/08/10 02:27:57;;;;;;;2.70;2.50;;;;;;;18.72;54.38;99869.69;5059809;28;20033;-78
2022/08/10 02:30:22;;;;;;;3.17;2.28;;;;;;;18.84;54.67;99894.53;5046905;28;20055;-78
2022/08/10 02:32:49;;;;;;;3.15;2.38;;;;;;;18.99;54.13;99896.38;5061362;28;20126;-78
2022/08/10 02:35:16;;;;;;;2.85;2.30;;;;;;;18.96;53.87;99883.41;5043170;28;20068;-78
2022/08/10 02:37:46;;;;;;;3.85;2.60;;;;;;;19.05;53.73;99901.47;5060797;28;20035;-78
2022/08/10 02:40:13;;;;;;;3.88;2.63;;;;;;;18.93;54.14;99889.38;5061228;28;20507;-78
2022/08/10 02:42:45;;;;;;;3.17;2.30;;;;;;;18.98;54.15;99892.06;5060136;28;20166;-79
2022/08/10 02:45:17;;;;;;;5.22;2.75;;;;;;;18.86;53.88;99891.56;5077448;28;20028;-78
2022/08/10 02:47:49;;;;;;;2.40;2.20;;;;;;;18.74;53.95;99886.44;5048625;28;20039;-78
2022/08/10 02:50:28;;;;;;;2.70;2.45;;;;;;;18.83;53.98;99890.22;5065640;28;20063;-78
2022/08/10 02:52:58;;;;;;;4.20;2.03;;;;;;;18.87;54.12;99877.75;5064492;28;20611;-79
2022/08/10 02:55:30;;;;;;;2.35;2.10;;;;;;;18.90;54.03;99896.13;5064615;28;20016;-78
2022/08/10 02:57:57;;;;;;;3.13;2.20;;;;;;;18.65;54.45;99894.31;5074996;28;20516;-79
2022/08/10 03:00:24;;;;;;;2.55;2.30;;;;;;;18.41;54.58;99887.88;5048361;28;20087;-78
2022/08/10 03:02:52;;;;;;;3.15;2.72;;;;;;;18.49;54.93;99887.38;5049951;28;20070;-78
2022/08/10 03:05:20;;;;;;;3.78;2.42;;;;;;;18.18;55.47;99898.47;5065991;28;20025;-78
2022/08/10 03:07:51;;;;;;;3.80;2.40;;;;;;;18.32;55.01;99904.94;5065768;28;20028;-78
2022/08/10 03:10:19;;;;;;;2.80;2.60;;;;;;;18.75;54.34;99900.78;5063435;28;20042;-79
2022/08/10 03:12:48;;;;;;;3.03;2.38;;;;;;;18.23;55.45;99893.88;5065574;28;20036;-78
2022/08/10 03:15:15;;;;;;;2.65;2.25;;;;;;;18.41;55.00;99884.38;5052141;28;20012;-79
2022/08/10 03:17:43;;;;;;;2.83;2.33;;;;;;;18.46;54.60;99868.97;5075016;28;20317;-78
2022/08/10 03:20:09;;;;;;;2.80;2.20;;;;;;;18.40;54.91;99872.75;5064161;28;20568;-78
2022/08/10 03:22:35;;;;;;;2.17;1.98;;;;;;;18.47;54.45;99883.31;5078125;28;20119;-78
2022/08/10 03:25:01;;;;;;;3.03;2.50;;;;;;;18.29;54.81;99886.56;5066256;28;20032;-78
2022/08/10 03:27:28;;;;;;;4.22;2.17;;;;;;;18.41;55.01;99897.91;5061672;28;20536;-78
2022/08/10 03:29:55;;;;;;;4.45;2.42;;;;;;;18.11;55.22;99874.41;5066098;28;20426;-78
2022/08/10 03:32:22;;;;;;;4.53;2.75;;;;;;;18.46;55.06;99895.19;5062439;28;20123;-78
2022/08/10 03:34:50;;;;;;;3.40;2.15;;;;;;;18.28;55.07;99896.53;5064814;28;20653;-78
2022/08/10 03:37:15;;;;;;;2.08;1.88;;;;;;;18.12;55.02;99891.44;5061713;28;20488;-78
2022/08/10 03:39:41;;;;;;;2.63;2.40;;;;;;;17.81;55.36;99860.94;5065575;28;20035;-78
2022/08/10 03:42:11;;;;;;;5.85;2.92;;;;;;;17.52;57.94;99897.63;5063068;28;20043;-78
2022/08/10 03:44:40;;;;;;;3.60;2.10;;;;;;;17.86;56.47;99896.88;5059948;28;20021;-78
2022/08/10 03:47:07;;;;;;;5.40;2.78;;;;;;;18.03;55.81;99877.69;5060312;28;20537;-78
2022/08/10 03:49:36;;;;;;;3.25;2.30;;;;;;;18.28;54.99;99891.13;5061376;28;20036;-79
2022/08/10 03:52:02;;;;;;;2.28;2.10;;;;;;;18.03;55.65;99871.47;5059217;28;20036;-77
2022/08/10 03:54:28;;;;;;;2.90;2.42;;;;;;;18.24;55.19;99891.97;5046569;28;20044;-78
2022/08/10 03:56:53;;;;;;;2.53;2.30;;;;;;;18.24;55.23;99891.97;5061934;28;20020;-78
2022/08/10 03:59:19;;;;;;;2.10;1.92;;;;;;;18.22;55.13;99894.94;5061839;28;20021;-78
2022/08/10 04:01:46;;;;;;;2.42;2.22;;;;;;;18.18;55.12;99882.25;5058939;28;20033;-78
2022/08/10 04:04:12;;;;;;;3.92;2.22;;;;;;;18.16;55.26;99884.41;5065870;28;20040;-78
2022/08/10 04:06:38;;;;;;;3.67;2.10;;;;;;;18.17;55.14;99892.28;5064384;28;20706;-78
2022/08/10 04:09:04;;;;;;;3.63;2.25;;;;;;;18.15;55.36;99899.81;5062636;28;20059;-78
2022/08/10 04:11:30;;;;;;;2.70;2.47;;;;;;;18.20;55.21;99902.50;5067987;28;20470;-78
2022/08/10 04:13:55;;;;;;;2.28;2.00;;;;;;;17.90;55.65;99878.22;5054417;28;20040;-78
2022/08/10 04:16:20;;;;;;;3.40;2.95;;;;;;;17.61;57.79;99904.94;5063253;28;20028;-78
2022/08/10 04:18:46;;;;;;;4.53;3.10;;;;;;;17.22;58.54;99915.38;5063700;28;20056;-78
2022/08/10 04:21:17;;;;;;;3.90;2.60;;;;;;;17.48;57.63;99916.22;5065790;28;20039;-78
2022/08/10 04:23:45;;;;;;;2.97;2.40;;;;;;;17.78;56.73;99913.59;5062209;28;20024;-78
2022/08/10 04:26:12;;;;;;;2.92;2.28;;;;;;;17.97;55.76;99900.38;5061077;28;20491;-78
2022/08/10 04:28:39;;;;;;;4.47;2.40;;;;;;;18.14;55.72;99906.31;5048529;28;20033;-78
2022/08/10 04:31:06;;;;;;;3.03;2.70;;;;;;;18.10;55.51;99893.59;5062344;28;20043;-78
2022/08/10 04:33:32;;;;;;;3.25;2.40;;;;;;;18.08;56.03;99902.00;5066568;28;20495;-78
2022/08/10 04:35:59;;;;;;;2.45;2.25;;;;;;;18.04;55.21;99897.41;5062398;28;20029;-78
2022/08/10 04:38:26;;;;;;;4.18;2.47;;;;;;;17.86;55.89;99888.78;5061941;28;20028;-78
2022/08/10 04:40:52;;;;;;;4.00;2.60;;;;;;;17.66;56.96;99913.06;5030498;28;20067;-78
2022/08/10 04:43:17;;;;;;;4.20;3.28;;;;;;;17.20;61.28;99908.59;5047244;28;20071;-78
2022/08/10 04:45:44;;;;;;;3.65;3.28;;;;;;;16.94;63.47;99923.91;5050375;28;20465;-77
2022/08/10 04:48:10;;;;;;;4.50;3.67;;;;;;;16.66;63.71;99913.53;5060877;28;20029;-78
2022/08/10 04:50:35;;;;;;;3.00;2.70;;;;;;;16.63;64.47;99921.31;5061789;28;20036;-78
2022/08/10 04:53:01;;;;;;;5.85;2.50;;;;;;;16.70;62.19;99917.31;5064751;28;20032;-77
2022/08/10 04:55:26;;;;;;;3.60;3.30;;;;;;;16.81;63.01;99910.06;5065196;28;20058;-78
2022/08/10 04:57:51;;;;;;;3.65;3.28;;;;;;;16.73;64.25;99916.78;5029901;28;20029;-78
2022/08/10 05:00:17;;;;;;;7.97;3.97;;;;;;;16.56;64.76;99897.28;5062950;28;20389;-78
2022/08/10 05:02:42;;;;;;;3.90;3.50;;;;;;;16.64;65.44;99923.75;5060297;28;20718;-78
2022/08/10 05:05:08;;;;;;;4.97;3.45;;;;;;;16.54;66.26;99912.91;5060407;28;20511;-78
2022/08/10 05:07:33;;;;;;;4.45;3.55;;;;;;;16.32;65.77;99893.34;5057346;28;20032;-78
2022/08/10 05:09:59;;;;;;;5.32;4.28;;;;;;;16.42;66.93;99921.16;5053441;28;20024;-77
2022/08/10 05:12:25;;;;;;;3.72;3.42;;;;;;;16.31;66.28;99914.09;5057652;28;20466;-77
2022/08/10 05:14:51;;;;;;;10.18;5.47;;;;;;;16.20;67.04;99915.09;5064279;28;20039;-77
2022/08/10 05:17:17;;;;;;;10.90;5.05;;;;;;;16.27;66.95;99923.75;5061722;28;20043;-77
2022/08/10 05:19:42;;;;;;;6.40;4.95;;;;;;;16.29;66.88;99927.00;5062866;28;20033;-79
2022/08/10 05:22:08;;;;;;;9.80;5.05;;;;;;;16.40;67.09;99923.28;5065714;28;20040;-77
2022/08/10 05:24:33;;;;;;;12.10;6.38;;;;;;;16.39;67.34;99910.09;5048596;28;20035;-79
2022/08/10 05:26:59;;;;;;;7.38;4.55;;;;;;;16.51;67.03;99918.84;5062424;28;20075;-79
2022/08/10 05:29:24;;;;;;;8.20;4.65;;;;;;;16.54;67.35;99922.88;5061546;28;20032;-79
2022/08/10 05:31:50;;;;;;;15.57;6.25;;;;;;;16.45;67.39;99934.13;5064363;28;20035;-79
2022/08/10 05:34:16;;;;;;;7.57;4.00;;;;;;;16.36;67.35;99913.28;5065259;28;20032;-79
2022/08/10 05:36:42;;;;;;;7.15;4.10;;;;;;;16.38;67.63;99908.47;5057374;28;20028;-79
2022/08/10 05:39:10;;;;;;;13.43;5.18;;;;;;;16.62;67.13;99917.00;5062631;28;20124;-79
2022/08/10 05:41:36;;;;;;;11.07;4.68;;;;;;;16.49;67.33;99926.31;5060021;28;20476;-79
2022/08/10 05:44:02;;;;;;;7.97;4.30;;;;;;;16.88;65.88;99921.44;5083031;28;20088;-80
2022/08/10 05:46:27;;;;;;;11.65;4.18;;;;;;;16.82;66.60;99931.38;5063975;28;20054;-80
2022/08/10 05:48:53;;;;;;;8.80;5.30;;;;;;;16.89;66.98;99925.75;5047472;28;20488;-80
2022/08/10 05:51:19;;;;;;;9.68;4.30;;;;;;;16.72;67.42;99931.34;5045630;28;20078;-80
2022/08/10 05:53:45;;;;;;;5.43;3.88;;;;;;;16.75;65.22;99921.94;5048753;28;20028;-79
2022/08/10 05:56:11;;;;;;;8.15;4.03;;;;;;;17.04;64.95;99933.91;5044838;28;20098;-79
2022/08/10 05:58:37;;;;;;;10.52;4.68;;;;;;;17.20;64.61;99932.91;5061682;28;20032;-79
2022/08/10 06:01:09;;;;;;;4.05;3.53;;;;;;;18.06;59.83;99917.69;5066666;28;20143;-79
2022/08/10 06:03:57;;;;;;;11.02;4.18;;;;;;;17.11;65.36;99935.28;5054280;28;20392;-80
2022/08/10 06:06:25;;;;;;;14.30;4.80;;;;;;;16.68;65.49;99929.44;5062191;28;20028;-80
2022/08/10 06:08:52;;;;;;;6.45;3.88;;;;;;;16.68;66.23;99937.50;5064004;28;20090;-79
2022/08/10 06:11:19;;;;;;;7.68;3.95;;;;;;;16.92;65.00;99938.72;5058200;28;20037;-79
2022/08/10 06:16:34;;;;;;;10.80;3.78;;;;;;;16.73;64.97;99941.03;5066435;28;20161;-79
2022/08/10 06:19:00;;;;;;;11.45;4.22;;;;;;;17.50;63.30;99941.09;5063414;28;20051;-79
2022/08/10 06:21:26;;;;;;;4.05;2.78;;;;;;;17.25;63.04;99946.41;5066043;28;20032;-79
2022/08/10 06:23:52;;;;;;;9.90;4.63;;;;;;;17.61;64.90;99931.13;5065467;28;20032;-79
2022/08/10 06:26:17;;;;;;;6.90;3.63;;;;;;;18.54;59.07;99937.91;5066460;28;20032;-79
2022/08/10 06:28:48;;;;;;;8.77;4.47;;;;;;;17.91;62.34;99956.28;5070587;28;20036;-79
2022/08/10 06:31:16;;;;;;;8.88;3.95;;;;;;;17.60;62.62;99946.53;5081445;28;20488;-78
2022/08/10 06:33:44;;;;;;;8.13;3.47;;;;;;;18.16;62.19;99943.88;5071234;28;20024;-78
2022/08/10 06:36:11;;;;;;;14.52;4.38;;;;;;;17.12;63.63;99928.03;5070224;28;20115;-78
2022/08/10 06:38:38;;;;;;;8.10;3.90;;;;;;;17.33;64.54;99945.06;5067301;28;20021;-78
2022/08/10 06:41:10;;;;;;;4.80;3.30;;;;;;;17.27;64.99;99936.16;5069149;28;20028;-78
2022/08/10 06:43:42;;;;;;;7.07;3.55;;;;;;;17.42;64.49;99948.88;5067564;28;20527;-78
2022/08/10 06:46:14;;;;;;;6.55;3.78;;;;;;;17.55;63.47;99957.31;5064395;28;20056;-78
2022/08/10 06:48:51;;;;;;;7.57;3.25;;;;;;;17.80;62.81;99965.44;5066494;28;20025;-79
2022/08/10 06:51:26;;;;;;;10.23;3.47;;;;;;;17.43;64.57;99958.63;5066581;28;20020;-78
2022/08/10 06:53:56;;;;;;;7.03;3.58;;;;;;;17.30;64.07;99957.19;5066405;28;20025;-79
2022/08/10 06:56:27;;;;;;;12.48;4.18;;;;;;;18.03;62.40;99960.63;5071108;28;20119;-79
2022/08/10 06:58:56;;;;;;;7.28;3.70;;;;;;;18.09;62.67;99948.72;5068866;28;20059;-78
2022/08/10 07:01:27;;;;;;;6.15;3.90;;;;;;;17.37;64.19;99946.97;5069370;28;20480;-78
2022/08/10 07:04:07;;;;;;;6.45;3.53;;;;;;;17.51;63.82;99942.75;5068956;28;21363;-78
2022/08/10 07:06:35;;;;;;;5.00;3.05;;;;;;;18.16;62.11;99951.97;5067704;28;20032;-78
2022/08/10 07:09:02;;;;;;;4.32;2.97;;;;;;;19.12;58.90;99945.28;5067880;28;20123;-79
2022/08/10 07:11:29;;;;;;;7.50;3.85;;;;;;;18.64;62.14;99936.00;5072238;28;20492;-79
2022/08/10 07:13:57;;;;;;;4.97;3.60;;;;;;;18.31;62.52;99941.16;5055473;28;20123;-79
2022/08/10 07:16:27;;;;;;;3.15;2.78;;;;;;;18.95;60.15;99947.53;5055049;28;20031;-79
2022/08/10 07:18:54;;;;;;;7.00;3.25;;;;;;;18.63;61.93;99941.69;5072048;28;20043;-79
2022/08/10 07:21:22;;;;;;;5.18;3.33;;;;;;;18.76;62.31;99934.88;5067560;28;20036;-79
2022/08/10 07:23:49;;;;;;;8.25;4.00;;;;;;;18.84;62.31;99948.66;5065804;28;20040;-78
2022/08/10 07:26:16;;;;;;;8.32;3.65;;;;;;;19.18;62.23;99944.19;5068103;28;20071;-78
2022/08/10 07:28:44;;;;;;;6.55;3.42;;;;;;;18.83;61.84;99938.91;5067675;28;20415;-78
2022/08/10 07:31:10;;;;;;;6.45;3.70;;;;;;;18.62;61.85;99937.34;5066781;28;20115;-78
2022/08/10 07:33:37;;;;;;;7.15;4.05;;;;;;;18.82;63.11;99940.00;5079726;28;20020;-78
2022/08/10 07:36:04;;;;;;;5.85;4.07;;;;;;;18.61;61.85;99944.63;5068919;28;20557;-79
2022/08/10 07:38:32;;;;;;;5.68;4.10;;;;;;;18.66;61.85;99927.59;5045753;28;20048;-78
2022/08/10 07:41:02;;;;;;;9.32;3.20;;;;;;;19.03;61.30;99940.72;5060272;28;20562;-79
2022/08/10 07:43:34;;;;;;;6.32;3.70;;;;;;;20.01;58.08;99955.06;5049755;28;20125;-79
2022/08/10 07:46:07;;;;;;;6.07;3.28;;;;;;;19.63;59.40;99945.88;5064840;28;20612;-78
2022/08/10 07:48:37;;;;;;;7.25;3.55;;;;;;;20.56;57.16;99951.09;5066463;28;20460;-80
2022/08/10 07:51:06;;;;;;;6.72;3.38;;;;;;;20.41;59.27;99945.81;5080979;28;20032;-79
2022/08/10 07:53:41;;;;;;;4.22;3.75;;;;;;;19.95;59.20;99948.91;5047724;28;20033;-79
2022/08/10 07:56:09;;;;;;;5.63;4.15;;;;;;;19.90;61.23;99953.53;5063062;28;20146;-79
2022/08/10 07:58:39;;;;;;;6.07;4.18;;;;;;;20.07;59.72;99948.53;5064669;28;20032;-79
2022/08/10 08:01:05;;;;;;;8.63;3.75;;;;;;;19.85;60.16;99937.31;5061830;28;20056;-79
2022/08/10 08:03:32;;;;;;;7.45;3.55;;;;;;;19.86;59.83;99930.78;5066524;28;20047;-80
2022/08/10 08:06:00;;;;;;;12.35;3.90;;;;;;;19.97;59.42;99946.72;5064702;28;20024;-79
2022/08/10 08:08:39;;;;;;;7.00;3.53;;;;;;;20.09;59.62;99946.34;5064733;28;20028;-79
2022/08/10 08:11:14;;;;;;;8.07;4.00;;;;;;;20.37;58.38;99942.06;5066689;28;20454;-79
2022/08/10 08:13:41;;;;;;;7.72;3.70;;;;;;;20.24;58.95;99929.16;5066646;28;20081;-79
2022/08/10 08:16:08;;;;;;;8.65;4.18;;;;;;;19.99;59.02;99943.72;5056264;28;20041;-79
2022/08/10 08:18:36;;;;;;;8.10;3.22;;;;;;;20.33;58.53;99932.88;5060239;28;20119;-79
2022/08/10 08:21:02;;;;;;;5.80;3.50;;;;;;;21.01;57.20;99911.78;5040962;28;20082;-79
2022/08/10 08:23:30;;;;;;;4.53;3.53;;;;;;;21.23;56.58;99936.53;5064222;28;20048;-79
2022/08/10 08:25:56;;;;;;;7.20;3.20;;;;;;;21.38;56.97;99930.88;5065867;28;20078;-79
2022/08/10 08:28:23;;;;;;;5.38;3.80;;;;;;;21.46;57.53;99946.50;5061800;28;20082;-79
2022/08/10 08:30:50;;;;;;;8.25;4.20;;;;;;;20.73;57.19;99922.41;5060048;28;20060;-78
2022/08/10 08:33:17;;;;;;;8.20;4.63;;;;;;;20.67;57.49;99934.44;5049247;28;20064;-78
2022/08/10 08:35:44;;;;;;;8.75;3.53;;;;;;;21.15;57.04;99943.38;5057802;28;20033;-79
2022/08/10 08:38:11;;;;;;;4.97;3.55;;;;;;;21.22;56.78;99918.59;5065220;28;20024;-79
2022/08/10 08:40:41;;;;;;;8.38;3.95;;;;;;;21.23;56.16;99933.81;5065723;28;20035;-79
2022/08/10 08:43:29;;;;;;;3.90;3.38;;;;;;;21.37;56.59;99940.13;5067683;28;20040;-79
2022/08/10 08:46:27;;;;;;;9.30;3.53;;;;;;;21.71;55.84;99943.41;5080738;28;20027;-79
2022/08/10 08:49:06;;;;;;;7.60;3.72;;;;;;;21.88;55.37;99942.94;5063956;28;20025;-79
2022/08/10 08:51:40;;;;;;;4.38;2.92;;;;;;;22.37;53.95;99930.41;5066961;28;20086;-80
2022/08/10 08:54:28;;;;;;;7.15;4.25;;;;;;;22.15;54.28;99930.25;5082982;28;20032;-80
2022/08/10 08:57:01;;;;;;;8.57;4.38;;;;;;;21.83;54.31;99926.69;5059458;28;20472;-79
2022/08/10 09:00:02;;;;;;;8.63;3.42;;;;;;;22.23;54.35;99932.31;5062944;28;20032;-79
2022/08/10 09:02:52;;;;;;;5.82;3.00;;;;;;;22.74;53.09;99920.50;5065596;28;20037;-79
2022/08/10 09:05:38;;;;;;;6.60;3.72;;;;;;;22.74;52.36;99910.41;5064178;28;20365;-80
2022/08/10 09:08:52;;;;;;;4.57;3.67;;;;;;;21.68;54.11;99916.84;5063972;28;20040;-80
2022/08/10 09:11:17;;;;;;;5.55;4.18;;;;;;;22.70;52.82;99917.56;5062704;28;20032;-79
2022/08/10 09:13:48;;;;;;;5.43;3.47;;;;;;;22.85;52.31;99914.56;5066319;28;20027;-80
2022/08/10 09:16:38;;;;;;;7.63;3.83;;;;;;;22.98;52.47;99915.66;5063890;28;20028;-80
2022/08/10 09:19:54;;;;;;;5.38;3.53;;;;;;;22.83;52.22;99916.78;5061115;28;20038;-80
2022/08/10 09:22:51;;;;;;;5.78;3.95;;;;;;;22.48;52.10;99903.00;5066850;28;20023;-80
2022/08/10 09:25:20;;;;;;;4.22;3.70;;;;;;;22.56;51.89;99881.38;5065232;28;20124;-80
2022/08/10 09:27:48;;;;;;;4.88;3.92;;;;;;;22.50;51.62;99896.16;5059454;28;20127;-79
2022/08/10 09:30:17;;;;;;;7.32;3.90;;;;;;;22.64;51.52;99879.88;5080945;28;20040;-79
2022/08/10 09:32:49;;;;;;;9.30;3.90;;;;;;;23.49;51.15;99863.63;5067184;28;20036;-80
2022/08/10 09:35:35;;;;;;;9.15;4.40;;;;;;;23.00;51.52;99873.38;5063936;28;20313;-80
2022/08/10 09:38:09;;;;;;;6.65;3.90;;;;;;;22.92;50.01;99887.72;5060742;28;20055;-79
2022/08/10 09:40:43;;;;;;;4.07;3.50;;;;;;;23.44;50.94;99883.63;5064128;28;20105;-80
2022/08/10 09:43:17;;;;;;;6.72;3.92;;;;;;;23.25;49.17;99882.13;5079597;28;20024;-80
2022/08/10 09:45:46;;;;;;;4.18;3.03;;;;;;;24.04;49.54;99881.34;5082889;28;20025;-80
2022/08/10 09:48:31;;;;;;;3.85;3.55;;;;;;;23.72;49.52;99863.31;5078398;28;20500;-80
2022/08/10 09:51:21;;;;;;;4.55;3.42;;;;;;;23.75;49.39;99870.06;5062125;28;20032;-80
2022/08/10 09:54:12;;;;;;;10.73;4.03;;;;;;;24.05;49.65;99868.56;5063700;28;20032;-80
2022/08/10 09:57:02;;;;;;;6.45;4.55;;;;;;;23.61;47.69;99859.22;5078517;28;20434;-80
2022/08/10 09:59:56;;;;;;;5.57;3.45;;;;;;;23.91;47.46;99837.78;5076928;28;20111;-80
2022/08/10 10:02:51;;;;;;;3.92;3.30;;;;;;;23.91;48.32;99857.69;5064088;28;20154;-80
2022/08/10 10:05:43;;;;;;;4.70;3.72;;;;;;;24.13;47.97;99848.69;5067370;28;20487;-80
2022/08/10 10:08:14;;;;;;;5.38;4.40;;;;;;;23.81;47.55;99831.47;5062843;28;20032;-80
2022/08/10 10:10:55;;;;;;;5.68;3.53;;;;;;;24.33;47.01;99829.06;5063046;28;20393;-80
2022/08/10 10:13:35;;;;;;;6.28;3.85;;;;;;;24.45;47.46;99826.50;5080130;28;20032;-80
2022/08/10 10:16:22;;;;;;;5.10;3.58;;;;;;;24.21;46.93;99831.53;5065325;28;20123;-80
2022/08/10 10:19:14;;;;;;;4.47;3.35;;;;;;;25.15;46.63;99826.38;5065079;28;20162;-80
2022/08/10 10:21:48;;;;;;;4.47;3.55;;;;;;;24.70;45.79;99831.25;5063995;28;20389;-80
2022/08/10 10:24:38;;;;;;;3.38;3.08;;;;;;;24.65;44.85;99825.94;5064588;28;20029;-80
2022/08/10 10:27:26;;;;;;;3.75;3.13;;;;;;;24.81;45.93;99820.88;5078627;28;20032;-80
2022/08/10 10:29:57;;;;;;;7.30;3.65;;;;;;;25.29;43.54;99816.09;5062538;28;20047;-80
2022/08/10 10:32:50;;;;;;;3.90;3.42;;;;;;;24.71;43.28;99813.75;5075658;28;20028;-81
2022/08/10 10:35:22;;;;;;;4.80;3.03;;;;;;;24.46;42.78;99809.81;5074355;28;20036;-80
2022/08/10 10:37:51;;;;;;;4.28;3.35;;;;;;;25.79;44.10;99798.06;5056647;28;20024;-81
2022/08/10 10:40:18;;;;;;;4.80;2.88;;;;;;;26.34;42.12;99809.00;5061668;28;20024;-80
2022/08/10 10:43:05;;;;;;;3.47;3.05;;;;;;;25.56;42.33;99818.53;5065099;28;20025;-81
2022/08/10 10:45:46;;;;;;;3.20;2.67;;;;;;;25.93;43.20;99789.63;5065351;28;20115;-81
2022/08/10 10:48:15;;;;;;;4.43;3.10;;;;;;;26.93;42.03;99803.56;5082323;28;20040;-81
2022/08/10 10:51:29;;;;;;;6.28;3.90;;;;;;;26.04;41.60;99808.13;5063251;28;20040;-81
2022/08/10 10:54:07;;;;;;;4.00;3.10;;;;;;;26.00;41.35;99800.91;5076072;28;20036;-80
2022/08/10 10:56:52;;;;;;;3.22;2.92;;;;;;;26.42;40.68;99780.78;5063331;28;20028;-80
2022/08/10 10:59:41;;;;;;;2.90;2.70;;;;;;;26.29;41.09;99792.78;5062218;28;20062;-80
2022/08/10 11:02:44;;;;;;;3.28;2.90;;;;;;;26.83;41.18;99795.72;5067419;28;20086;-80
2022/08/10 11:05:21;;;;;;;4.57;2.80;;;;;;;26.93;41.32;99787.13;5080056;28;20399;-81
2022/08/10 11:07:52;;;;;;;3.85;2.33;;;;;;;27.95;39.49;99794.44;5061270;28;20028;-80
2022/08/10 11:10:23;;;;;;;4.05;3.05;;;;;;;27.58;38.96;99789.16;5065441;28;20149;-81
2022/08/10 11:13:33;;;;;;;6.50;3.70;;;;;;;26.91;39.55;99797.63;5064774;28;20108;-79
2022/08/10 11:16:18;;;;;;;5.40;2.90;;;;;;;27.84;40.04;99776.78;5064049;28;20039;-80
2022/08/10 11:19:03;;;;;;;4.05;3.65;;;;;;;28.63;38.93;99784.56;5069643;28;20582;-81
2022/08/10 11:21:43;;;;;;;5.60;3.05;;;;;;;28.29;37.58;99786.91;5064957;28;20024;-81
2022/08/10 11:24:21;;;;;;;6.40;3.25;;;;;;;28.49;38.56;99786.00;5082939;28;20055;-81
2022/08/10 11:26:58;;;;;;;4.05;2.80;;;;;;;28.63;37.60;99781.00;5080753;28;20098;-81
2022/08/10 11:29:33;;;;;;;3.25;2.50;;;;;;;29.35;37.04;99774.56;5068708;28;20076;-80
2022/08/10 11:32:05;;;;;;;5.00;2.90;;;;;;;29.38;36.26;99790.34;5066270;28;20035;-80
2022/08/10 11:34:46;;;;;;;5.10;2.65;;;;;;;29.98;36.48;99787.31;5065935;28;20215;-81
2022/08/10 11:37:25;;;;;;;2.85;2.60;;;;;;;30.00;37.13;99774.00;5064562;28;20024;-81
2022/08/10 11:40:00;;;;;;;3.30;2.60;;;;;;;30.24;35.12;99773.81;5060125;28;20036;-81
2022/08/10 11:42:54;;;;;;;3.22;2.70;;;;;;;28.96;35.40;99753.34;5067022;28;20028;-81
2022/08/10 11:45:34;;;;;;;2.92;2.63;;;;;;;29.27;36.84;99762.53;5081975;28;20028;-81
2022/08/10 11:48:08;;;;;;;4.03;2.47;;;;;;;29.90;34.92;99774.53;5069900;28;20029;-81
2022/08/10 11:50:46;;;;;;;3.08;2.80;;;;;;;29.18;35.02;99763.84;5066866;28;20031;-81
2022/08/10 11:53:39;;;;;;;3.40;2.83;;;;;;;29.81;35.03;99770.34;5049592;28;20036;-81
2022/08/10 11:56:08;;;;;;;3.33;2.05;;;;;;;30.11;34.58;99763.25;5080554;28;20025;-81
2022/08/10 12:01:29;;;;;;;3.90;2.25;;;;;;;29.00;35.73;99757.81;5064329;28;20059;-81
2022/08/10 12:03:56;;;;;;;4.22;2.42;;;;;;;28.10;35.62;99763.59;5069502;28;20047;-81